createdAt,value
2019-05-09T00:02:45.310Z,7.37
2019-05-09T00:19:36.575Z,7.19
2019-05-09T00:24:58.978Z,7.20
2019-05-09T00:30:44.264Z,7.25
2019-05-09T00:36:33.463Z,7.42
2019-05-09T00:39:24.356Z,7.49
2019-05-09T00:42:13.968Z,7.53
2019-05-09T00:47:36.221Z,7.69
2019-05-09T00:50:25.533Z,7.77
2019-05-09T00:53:14.899Z,7.83
2019-05-09T00:56:04.791Z,7.84
2019-05-09T00:58:35.307Z,7.86
2019-05-09T01:04:13.905Z,7.90
2019-05-09T01:07:03.720Z,7.67
2019-05-09T01:09:54.328Z,8.01
2019-05-09T01:12:44.897Z,8.02
2019-05-09T01:15:25.407Z,8.05
2019-05-09T01:18:15.108Z,8.08
2019-05-09T01:21:04.563Z,8.10
2019-05-09T01:23:47.282Z,8.14
2019-05-09T01:26:25.954Z,8.17
2019-05-09T01:29:18.129Z,8.17
2019-05-09T01:35:06.119Z,8.11
2019-05-09T01:37:47.158Z,8.10
2019-05-09T01:40:53.373Z,8.11
2019-05-09T01:43:44.363Z,8.11
2019-05-09T01:46:54.233Z,7.20
2019-05-09T01:49:44.850Z,8.14
2019-05-09T01:52:34.133Z,8.12
2019-05-09T01:55:43.214Z,7.97
2019-05-09T01:58:34.507Z,7.85
2019-05-09T02:01:27.517Z,7.70
2019-05-09T02:04:16.982Z,7.49
2019-05-09T02:07:06.987Z,7.35
2019-05-09T02:09:56.553Z,7.30
2019-05-09T02:12:37.775Z,7.26
2019-05-09T02:15:38.467Z,7.14
2019-05-09T02:18:44.059Z,6.20
2019-05-09T02:21:25.516Z,7.18
2019-05-09T02:24:08.164Z,7.29
2019-05-09T02:26:50.078Z,7.41
2019-05-09T02:29:20.516Z,7.44
2019-05-09T02:31:51.142Z,7.48
2019-05-09T02:34:40.523Z,7.47
2019-05-09T02:37:30.294Z,7.50
2019-05-09T02:40:23.727Z,7.55
2019-05-09T02:43:18.472Z,7.52
2019-05-09T02:46:29.393Z,7.49
2019-05-09T02:48:59.567Z,7.45
2019-05-09T02:51:49.847Z,7.45
2019-05-09T02:54:43.216Z,7.50
2019-05-09T02:57:32.667Z,7.43
2019-05-09T03:00:42.550Z,7.26
2019-05-09T03:03:39.058Z,6.97
2019-05-09T03:06:28.379Z,7.08
2019-05-09T03:09:19.767Z,7.04
2019-05-09T03:12:21.000Z,6.97
2019-05-09T03:14:48.552Z,7.00
2019-05-09T03:17:30.435Z,6.98
2019-05-09T03:20:18.218Z,6.92
2019-05-09T03:22:58.990Z,6.90
2019-05-09T03:25:41.280Z,6.87
2019-05-09T03:31:40.531Z,6.79
2019-05-09T03:34:21.959Z,6.70
2019-05-09T03:37:08.514Z,6.71
2019-05-09T03:39:49.273Z,6.59
2019-05-09T03:42:58.606Z,6.57
2019-05-09T03:52:07.470Z,6.56
2019-05-09T03:54:57.938Z,6.54
2019-05-09T04:04:30.097Z,6.47
2019-05-09T04:07:19.854Z,6.52
2019-05-09T04:10:13.355Z,6.64
2019-05-09T04:13:08.191Z,5.81
2019-05-09T04:15:58.254Z,6.65
2019-05-09T04:18:49.112Z,6.62
2019-05-09T04:21:38.474Z,6.64
2019-05-09T04:24:22.621Z,6.59
2019-05-09T04:27:08.848Z,6.60
2019-05-09T04:29:51.032Z,6.62
2019-05-09T04:32:32.671Z,6.62
2019-05-09T04:35:17.404Z,6.59
2019-05-09T04:38:00.123Z,6.57
2019-05-09T04:40:44.985Z,6.61
2019-05-09T04:43:34.581Z,6.67
2019-05-09T04:46:12.843Z,6.74
2019-05-09T04:48:54.081Z,6.83
2019-05-09T04:54:20.519Z,6.95
2019-05-09T04:57:02.294Z,7.05
2019-05-09T04:59:43.743Z,7.14
2019-05-09T05:02:31.507Z,7.23
2019-05-09T05:08:31.481Z,7.46
2019-05-09T05:11:21.259Z,7.62
2019-05-09T05:13:52.100Z,7.73
2019-05-09T05:16:41.962Z,7.91
2019-05-09T05:19:17.675Z,8.01
2019-05-09T05:21:49.696Z,8.09
2019-05-09T05:24:39.352Z,8.19
2019-05-09T05:27:30.766Z,8.26
2019-05-09T05:30:01.495Z,8.40
2019-05-09T05:33:10.069Z,8.49
2019-05-09T05:35:48.823Z,8.58
2019-05-09T05:38:39.386Z,8.68
2019-05-09T05:41:13.959Z,8.75
2019-05-09T05:44:08.524Z,8.87
2019-05-09T05:46:58.686Z,8.96
2019-05-09T05:49:50.285Z,9.09
2019-05-09T05:52:40.950Z,9.20
2019-05-09T05:55:14.102Z,9.23
2019-05-09T05:57:47.683Z,9.26
2019-05-09T06:03:17.815Z,9.33
2019-05-09T06:05:51.670Z,9.38
2019-05-09T06:08:39.533Z,9.42
2019-05-09T06:11:29.050Z,9.45
2019-05-09T06:17:09.554Z,9.49
2019-05-09T06:19:44.239Z,9.55
2019-05-09T06:22:13.528Z,9.65
2019-05-09T06:25:03.932Z,9.77
2019-05-09T06:27:37.586Z,9.89
2019-05-09T06:30:29.010Z,10.04
2019-05-09T06:33:19.402Z,10.06
2019-05-09T06:35:53.299Z,10.18
2019-05-09T06:38:28.274Z,10.10
2019-05-09T06:41:00.963Z,10.01
2019-05-09T06:43:39.197Z,10.13
2019-05-09T06:46:27.832Z,9.98
2019-05-09T06:52:17.475Z,9.95
2019-05-09T06:54:48.595Z,9.37
2019-05-09T06:57:42.548Z,10.70
2019-05-09T07:00:31.123Z,11.22
2019-05-09T07:03:08.049Z,11.74
2019-05-09T07:06:08.310Z,12.14
2019-05-09T07:08:47.681Z,12.21
2019-05-09T07:11:21.026Z,12.11
2019-05-09T07:13:51.498Z,11.99
2019-05-09T07:16:22.168Z,11.76
2019-05-09T07:19:11.935Z,11.68
2019-05-09T07:22:01.432Z,11.61
2019-05-09T07:25:10.935Z,11.59
2019-05-09T07:34:27.638Z,11.98
2019-05-09T07:37:18.562Z,12.16
2019-05-09T07:39:50.226Z,12.33
2019-05-09T07:42:21.073Z,12.44
2019-05-09T07:44:52.421Z,12.55
2019-05-09T07:47:35.133Z,12.52
2019-05-09T07:53:28.402Z,12.39
2019-05-09T07:55:58.804Z,12.23
2019-05-09T07:58:29.442Z,12.20
2019-05-09T08:01:21.459Z,12.18
2019-05-09T08:04:18.270Z,12.15
2019-05-09T08:07:08.335Z,12.09
2019-05-09T08:12:49.321Z,12.02
2019-05-09T08:15:33.529Z,12.07
2019-05-09T08:18:28.301Z,12.13
2019-05-09T08:21:02.415Z,12.20
2019-05-09T08:23:37.987Z,12.19
2019-05-09T08:26:30.033Z,12.21
2019-05-09T08:29:20.018Z,12.10
2019-05-09T08:32:11.938Z,12.10
2019-05-09T08:35:01.504Z,12.00
2019-05-09T08:37:31.782Z,11.99
2019-05-09T08:43:28.217Z,12.28
2019-05-09T08:46:19.778Z,12.30
2019-05-09T08:48:53.426Z,12.22
2019-05-09T08:52:14.989Z,12.17
2019-05-09T08:54:48.583Z,12.03
2019-05-09T08:57:19.024Z,11.86
2019-05-09T08:59:58.905Z,11.76
2019-05-09T09:02:51.003Z,11.61
2019-05-09T09:05:43.510Z,11.42
2019-05-09T09:08:18.106Z,11.32
2019-05-09T09:13:44.149Z,11.45
2019-05-09T09:19:24.275Z,11.72
2019-05-09T09:22:00.108Z,12.01
2019-05-09T09:27:27.406Z,12.16
2019-05-09T09:29:58.759Z,12.23
2019-05-09T09:32:49.108Z,12.13
2019-05-09T09:35:19.415Z,12.14
2019-05-09T09:37:54.713Z,11.95
2019-05-09T09:40:28.041Z,11.91
2019-05-09T09:43:34.851Z,11.95
2019-05-09T09:46:14.028Z,12.21
2019-05-09T09:48:55.371Z,12.76
2019-05-09T09:52:05.322Z,13.23
2019-05-09T09:57:29.506Z,13.81
2019-05-09T10:00:44.578Z,14.65
2019-05-09T10:03:34.952Z,16.09
2019-05-09T10:09:43.929Z,17.82
2019-05-09T10:12:23.803Z,15.83
2019-05-09T10:20:54.253Z,15.64
2019-05-09T10:24:02.732Z,15.67
2019-05-09T10:27:10.831Z,16.13
2019-05-09T10:30:01.779Z,16.50
2019-05-09T10:35:42.010Z,16.72
2019-05-09T10:38:34.723Z,16.61
2019-05-09T10:41:24.176Z,16.82
2019-05-09T10:44:32.959Z,16.79
2019-05-09T10:47:23.599Z,17.05
2019-05-09T10:50:44.870Z,17.28
2019-05-09T10:53:58.501Z,17.01
2019-05-09T10:59:44.135Z,16.33
2019-05-09T11:02:34.118Z,16.77
2019-05-09T11:05:34.576Z,16.33
2019-05-09T11:08:42.715Z,15.92
2019-05-09T11:11:53.747Z,16.19
2019-05-09T11:14:44.200Z,16.14
2019-05-09T11:17:19.310Z,16.10
2019-05-09T11:20:08.691Z,15.98
2019-05-09T11:22:58.401Z,16.19
2019-05-09T11:29:09.815Z,15.26
2019-05-09T11:31:40.087Z,15.15
2019-05-09T11:34:49.668Z,15.06
2019-05-09T11:40:30.043Z,14.64
2019-05-09T11:43:20.970Z,14.26
2019-05-09T11:46:10.670Z,14.15
2019-05-09T11:48:50.511Z,13.83
2019-05-09T11:51:40.056Z,13.69
2019-05-09T11:54:48.038Z,13.47
2019-05-09T11:57:27.176Z,13.40
2019-05-09T11:59:57.693Z,13.25
2019-05-09T12:02:46.207Z,13.13
2019-05-09T12:05:37.962Z,13.05
2019-05-09T12:08:27.708Z,13.00
2019-05-09T12:11:18.728Z,12.89
2019-05-09T12:13:49.030Z,12.85
2019-05-09T12:16:38.361Z,12.95
2019-05-09T12:19:29.505Z,12.93
2019-05-09T12:28:20.890Z,13.51
2019-05-09T12:31:22.354Z,13.40
2019-05-09T12:34:04.744Z,13.48
2019-05-09T12:40:10.729Z,13.43
2019-05-09T12:46:30.264Z,12.69
2019-05-09T12:49:22.735Z,13.70
2019-05-09T12:52:12.309Z,13.74
2019-05-09T12:55:03.363Z,13.85
2019-05-09T12:57:33.570Z,14.25
2019-05-09T13:00:04.200Z,14.67
2019-05-09T13:02:53.733Z,15.06
2019-05-09T13:05:24.050Z,14.97
2019-05-09T13:11:02.898Z,14.50
2019-05-09T13:13:33.612Z,14.25
2019-05-09T13:19:48.436Z,14.04
2019-05-09T13:25:58.557Z,14.47
2019-05-09T13:28:50.827Z,14.57
2019-05-09T13:31:40.133Z,14.62
2019-05-09T13:34:49.679Z,14.83
2019-05-09T13:37:40.174Z,14.65
2019-05-09T13:40:29.502Z,14.18
2019-05-09T13:43:19.206Z,13.81
2019-05-09T13:45:49.458Z,13.63
2019-05-09T13:48:57.112Z,13.37
2019-05-09T13:50:52.180Z,13.12
2019-05-09T13:53:44.011Z,12.84
2019-05-09T13:56:42.955Z,11.97
2019-05-09T13:59:32.321Z,12.67
2019-05-09T14:02:44.989Z,12.84
2019-05-09T14:05:53.581Z,13.16
2019-05-09T14:08:43.190Z,15.30
2019-05-09T14:11:32.463Z,17.41
2019-05-09T14:14:22.142Z,18.08
2019-05-09T14:17:03.833Z,17.04
2019-05-09T14:19:47.936Z,16.32
2019-05-09T14:22:18.056Z,15.56
2019-05-09T14:25:11.113Z,16.33
2019-05-09T14:27:58.818Z,16.72
2019-05-09T14:31:07.698Z,16.59
2019-05-09T14:34:09.521Z,17.41
2019-05-09T14:36:49.520Z,19.06
2019-05-09T14:39:54.527Z,17.75
2019-05-09T14:42:30.787Z,16.05
2019-05-09T14:45:20.239Z,15.69
2019-05-09T14:47:52.252Z,15.96
2019-05-09T14:50:43.732Z,15.59
2019-05-09T14:53:52.052Z,14.89
2019-05-09T14:56:42.720Z,13.99
2019-05-09T15:02:41.271Z,14.15
2019-05-09T15:05:11.693Z,14.04
2019-05-09T15:08:01.271Z,14.09
2019-05-09T15:10:53.369Z,14.11
2019-05-09T15:14:04.809Z,13.96
2019-05-09T15:16:35.254Z,13.63
2019-05-09T15:19:18.496Z,13.30
2019-05-09T15:24:35.833Z,13.11
2019-05-09T15:27:06.684Z,13.18
2019-05-09T15:29:39.110Z,13.20
2019-05-09T15:32:28.387Z,13.11
2019-05-09T15:35:33.376Z,13.21
2019-05-09T15:38:13.060Z,13.24
2019-05-09T15:41:11.443Z,13.30
2019-05-09T15:43:57.931Z,13.30
2019-05-09T15:46:59.348Z,13.18
2019-05-09T15:49:41.528Z,13.32
2019-05-09T15:52:23.143Z,14.27
2019-05-09T15:55:09.468Z,16.40
2019-05-09T16:00:39.037Z,16.11
2019-05-09T16:06:09.078Z,15.17
2019-05-09T16:11:37.724Z,14.57
2019-05-09T16:14:27.702Z,14.31
2019-05-09T16:17:39.364Z,14.11
2019-05-09T16:20:10.631Z,13.82
2019-05-09T16:22:44.252Z,13.54
2019-05-09T16:25:20.096Z,13.52
2019-05-09T16:27:51.583Z,13.49
2019-05-09T16:30:41.199Z,13.51
2019-05-09T16:33:36.634Z,13.65
2019-05-09T16:36:08.054Z,13.63
2019-05-09T16:38:45.994Z,13.65
2019-05-09T16:41:39.218Z,13.68
2019-05-09T16:44:28.749Z,13.71
2019-05-09T16:47:21.743Z,13.89
2019-05-09T16:49:50.304Z,14.08
2019-05-09T16:52:21.428Z,13.83
2019-05-09T16:55:15.118Z,13.53
2019-05-09T16:57:45.677Z,13.42
2019-05-09T17:00:38.135Z,13.34
2019-05-09T17:03:13.962Z,13.28
2019-05-09T17:05:44.279Z,13.27
2019-05-09T17:08:19.194Z,13.19
2019-05-09T17:10:49.603Z,13.12
2019-05-09T17:13:40.096Z,13.10
2019-05-09T17:19:23.005Z,13.10
2019-05-09T17:22:17.982Z,13.17
2019-05-09T17:28:18.065Z,13.20
2019-05-09T17:31:09.563Z,13.28
2019-05-09T17:33:58.937Z,13.37
2019-05-09T17:36:48.514Z,13.33
2019-05-09T17:39:54.907Z,12.43
2019-05-09T17:42:32.201Z,13.07
2019-05-09T17:45:24.126Z,13.05
2019-05-09T17:48:28.553Z,13.05
2019-05-09T17:51:05.088Z,12.99
2019-05-09T17:53:59.087Z,12.99
2019-05-09T17:56:50.949Z,12.92
2019-05-09T17:59:43.443Z,12.82
2019-05-09T18:02:32.797Z,12.77
2019-05-09T18:05:25.131Z,12.79
2019-05-09T18:08:14.456Z,12.78
2019-05-09T18:10:48.606Z,12.77
2019-05-09T18:13:59.582Z,12.77
2019-05-09T18:16:32.239Z,12.78
2019-05-09T18:19:10.459Z,12.68
2019-05-09T18:22:12.834Z,12.54
2019-05-09T18:25:10.752Z,12.36
2019-05-09T18:28:00.076Z,12.18
2019-05-09T18:30:30.352Z,11.91
2019-05-09T18:33:20.010Z,11.72
2019-05-09T18:36:09.439Z,11.62
2019-05-09T18:39:19.302Z,11.57
2019-05-09T18:42:27.749Z,11.53
2019-05-09T18:45:00.310Z,11.33
2019-05-09T18:47:48.203Z,11.27
2019-05-09T18:50:22.654Z,11.24
2019-05-09T18:53:15.065Z,11.13
2019-05-09T18:56:04.377Z,11.11
2019-05-09T18:58:53.639Z,11.11
2019-05-09T19:01:29.316Z,11.01
2019-05-09T19:04:25.893Z,11.02
2019-05-09T19:12:59.064Z,11.00
2019-05-09T19:16:07.825Z,10.91
2019-05-09T19:18:57.005Z,11.02
2019-05-09T19:21:35.755Z,11.11
2019-05-09T19:27:20.595Z,11.16
2019-05-09T19:30:10.640Z,11.12
2019-05-09T19:33:00.257Z,11.10
2019-05-09T19:35:31.564Z,11.10
2019-05-09T19:38:21.073Z,11.00
2019-05-09T19:40:53.206Z,11.06
2019-05-09T19:44:02.805Z,11.14
2019-05-09T19:46:33.468Z,11.14
2019-05-09T19:49:11.700Z,11.16
2019-05-09T19:51:54.111Z,11.26
2019-05-09T19:54:22.787Z,11.29
2019-05-09T19:57:34.010Z,11.30
2019-05-09T20:00:25.386Z,11.33
2019-05-09T20:02:58.196Z,11.35
2019-05-09T20:05:50.760Z,11.32
2019-05-09T20:08:44.506Z,11.30
2019-05-09T20:11:37.319Z,11.27
2019-05-09T20:14:41.760Z,11.23
2019-05-09T20:17:27.271Z,11.20
2019-05-09T20:20:16.954Z,11.27
2019-05-09T20:23:07.596Z,11.29
2019-05-09T20:25:38.304Z,11.27
2019-05-09T20:28:09.141Z,11.29
2019-05-09T20:30:42.807Z,11.27
2019-05-09T20:33:13.280Z,11.25
2019-05-09T20:35:46.399Z,11.23
2019-05-09T20:38:35.926Z,11.20
2019-05-09T20:41:08.538Z,11.18
2019-05-09T20:43:39.360Z,11.07
2019-05-09T20:46:32.293Z,11.06
2019-05-09T20:49:21.760Z,11.09
2019-05-09T20:55:06.921Z,10.96
2019-05-09T21:20:50.409Z,10.71
2019-05-09T21:23:40.166Z,10.53
2019-05-09T21:29:39.504Z,10.49
2019-05-09T21:32:31.659Z,10.47
2019-05-09T21:35:21.028Z,10.43
2019-05-09T21:37:51.341Z,10.42
2019-05-09T21:40:40.676Z,10.40
2019-05-09T21:43:29.972Z,10.39
2019-05-09T21:46:19.622Z,10.36
2019-05-09T21:48:50.174Z,10.39
2019-05-09T21:51:21.669Z,10.37
2019-05-09T21:54:31.987Z,10.30
2019-05-09T21:57:02.303Z,10.25
2019-05-09T22:00:13.840Z,10.22
2019-05-09T22:02:44.453Z,10.25
2019-05-09T22:05:37.131Z,10.24
2019-05-09T22:08:26.581Z,10.23
2019-05-09T22:11:34.768Z,10.22
2019-05-09T22:14:43.086Z,10.21
2019-05-09T22:17:50.266Z,10.16
2019-05-09T22:23:06.402Z,10.12
2019-05-09T22:25:35.919Z,10.06
2019-05-09T22:28:25.338Z,10.07
2019-05-09T22:30:55.971Z,10.05
2019-05-09T22:33:46.583Z,10.06
2019-05-09T22:36:17.157Z,10.07
2019-05-09T22:39:27.031Z,10.09
2019-05-09T22:45:25.987Z,10.10
2019-05-09T22:48:16.147Z,9.56
2019-05-09T22:50:46.619Z,10.11
2019-05-09T22:56:36.259Z,10.03
2019-05-09T22:59:44.647Z,9.93
2019-05-09T23:02:14.976Z,9.90
2019-05-09T23:08:33.142Z,9.63
2019-05-09T23:11:22.418Z,9.53
2019-05-09T23:13:52.808Z,9.52
2019-05-09T23:16:40.191Z,9.52
2019-05-09T23:22:03.955Z,9.57
2019-05-09T23:27:44.619Z,9.61
2019-05-09T23:30:34.190Z,9.52
2019-05-09T23:36:52.130Z,9.38
2019-05-09T23:39:43.979Z,9.25
2019-05-09T23:42:33.361Z,9.16
2019-05-09T23:45:06.564Z,9.03
2019-05-09T23:47:47.590Z,9.08
2019-05-09T23:50:17.974Z,9.03
2019-05-09T23:53:07.793Z,8.93
2019-05-09T23:55:56.991Z,8.90
2019-05-09T23:58:46.116Z,8.88
